Terminal Aerodrome Forecast
Issued by NWS

Home | Current Version | Previous Version | Text Only | Print | Product List | Glossary On
Versions: 1 2 3 4 5 6 7 8 9 10 11 12 13 14
000
FTUS44 KJAN 290500
TAFHKS
TAF
KHKS 290520Z 2906/3006 16005KT P6SM SCT250
     FM291000 17007KT P6SM SCT009 BKN120
     FM291400 20011G17KT P6SM SCT030 BKN100
     FM292000 27008KT P6SM BKN035
     FM300000 34008KT P6SM SCT030 BKN250=

USA.gov is the U.S. government's official web portal to all federal, state and local government web resources and services.